Airfield :







YOU CAN JOIN US ON...

 
LOGIN :

Register | Disclaimer

   EN    FR    IT 

 









Legend :    VFR   Marginal VFR   IFR   Intensive IFR   Very Intensive IFR
Visi :
Ceiling :
>= 8 km
>= 3000ft
5 to 8 km
1000 to 3000 ft
1500m to 5 km
500 to 1000 ft
800 to 1500m
200 to 500 ft
< 800m
< 200 ft
Symbols :   Thunderstorms  Fog  Heavy snow  Heavy precipitations  Wind > 20 kt






- Airport Elevation : 21 ft
- IATA code : YVM


CYVM - Qikiqtarjuac

CURRENT METAR :
  • 180131Z AUTO 36004KT 350V050 1/2SM FZFG VV003 M00/M00 A2963 RMK SLP035

EXPIRED METARs :
  • 180121Z AUTO 04004KT 010V080 3/8SM SN OVC002 M00/M00 A2963 RMK SLP035
  • 180110Z AUTO 02004KT 1/4SM +SN VV003 M01/M01 A2963 RMK SLP037
  • 180049Z AUTO 04004KT 360V060 1/4SM +SN OVC002 M00/M00 A2963 RMK SLP036
  • 180038Z AUTO 05005KT 3/4SM -SN OVC002 M00/M00 A2963 RMK VIS VRB 3/8-3 SLP037
  • 180020Z AUTO 04005KT 5/8SM -RASN VV002 M00/M00 A2963 RMK SLP037
  • 180011Z AUTO 04005KT 1/2SM SN VV002 M00/M00 A2964 RMK VIS VRB 1/8-3 SLP038
  • 180005Z AUTO 03006KT 1/8SM +SNRA VV002 M00/M00 A2964 RMK SLP038
  • 172356Z AUTO 03006KT 1/4SM +SNRA VV003 M00/M00 A2963 RMK SLP037
  • 172300Z AUTO 05008KT 3/4SM -RA BR OVC002 00/00 A2964 RMK VIS VRB 3/8-3 SLP038
  • 172241Z AUTO 04007KT 1 1/2SM -RA BR BKN002 OVC130 01/01 A2963 RMK SLP037

TAF TAF CYVM
Valid from the 18 at 01:00 until the 18 at 13:00 UTC


180038Z 1801/1813 04005KT 3/4SM -RASN BR VV002
TEMPO 1801/1813 3SM -SN OVC010 RMK FCST BASED ON AUTO OBS. NXT FCST BY 180700Z
CZEG FIR / North America



MET'MAP, your aeronautical weather chart ! - Copyright ORBIFLY December 2007 - Disclaimer

ORBIFLY MET'MAP TEAM :

Programming & Development : Alexandra Zaïnal
Concept & original design : Baudouin d'Aumeries
Assistance for programming : Marc-Olivier Méhu
Technical & hardware support : Manuel Goepfert

Contact : metmap@orbifly.com




SOURCES & CREDITS :

   NOAA